Time;durP1;ratioP1;P1;durP2;ratioP2;P2;SDS_P1;SDS_P2;PMS_P1;PMS_P2;Temp;Humidity;BMP_temperature;BMP_pressure;BME280_temperature;BME280_humidity;BME280_pressure;Samples;Min_cycle;Max_cycle;Signal;HPM_P1;HPM_P2
2021/10/11 00:02:20;;;;;;;35.92;16.60;;;9.60;88.60;;;;;;1891481;75;21022;-50
2021/10/11 00:04:50;;;;;;;23.98;14.83;;;9.60;88.60;;;;;;1891718;76;21043;-50
2021/10/11 00:07:19;;;;;;;30.72;15.85;;;9.60;88.70;;;;;;1891497;76;21034;-52
2021/10/11 00:09:49;;;;;;;22.98;13.78;;;9.60;88.70;;;;;;1891554;76;21010;-52
2021/10/11 00:12:22;;;;;;;21.15;14.07;;;9.60;88.70;;;;;;1891550;76;21450;-49
2021/10/11 00:14:50;;;;;;;27.82;15.53;;;9.60;88.80;;;;;;1891463;75;21477;-49
2021/10/11 00:17:19;;;;;;;23.83;13.83;;;9.60;88.70;;;;;;1891477;76;21092;-50
2021/10/11 00:19:51;;;;;;;27.73;14.90;;;9.60;88.60;;;;;;1891457;76;21027;-50
2021/10/11 00:22:22;;;;;;;29.20;15.38;;;9.60;88.80;;;;;;1891404;76;21096;-50
2021/10/11 00:24:52;;;;;;;22.93;14.43;;;9.50;88.70;;;;;;1891484;76;21058;-50
2021/10/11 00:27:21;;;;;;;22.65;13.80;;;9.50;88.70;;;;;;1891442;76;21030;-52
2021/10/11 00:29:50;;;;;;;20.65;13.98;;;9.50;88.60;;;;;;1891597;76;21030;-49
2021/10/11 00:32:20;;;;;;;25.25;15.20;;;9.50;88.80;;;;;;1891537;75;21046;-51
2021/10/11 00:34:49;;;;;;;27.35;15.45;;;9.50;88.90;;;;;;1891704;76;21026;-51
2021/10/11 00:37:19;;;;;;;29.23;16.60;;;9.40;88.80;;;;;;1891536;76;21030;-50
2021/10/11 00:39:48;;;;;;;26.50;14.25;;;9.50;88.90;;;;;;1891451;76;21104;-52
2021/10/11 00:42:17;;;;;;;23.95;13.70;;;9.50;88.80;;;;;;1891534;76;21026;-50
2021/10/11 00:44:47;;;;;;;26.33;14.73;;;9.40;88.70;;;;;;1891696;76;21172;-52
2021/10/11 00:47:16;;;;;;;25.10;14.45;;;9.40;88.80;;;;;;1891529;76;21058;-50
2021/10/11 00:49:45;;;;;;;27.17;13.80;;;9.40;88.80;;;;;;1891566;76;21030;-51
2021/10/11 00:52:15;;;;;;;25.90;14.10;;;9.40;88.80;;;;;;1891602;76;21041;-51
2021/10/11 00:54:45;;;;;;;24.90;14.70;;;9.40;88.90;;;;;;1891533;76;21022;-49
2021/10/11 00:57:14;;;;;;;26.27;16.52;;;9.40;88.90;;;;;;1891567;75;21104;-49
2021/10/11 00:59:44;;;;;;;26.35;15.15;;;9.40;88.80;;;;;;1891527;76;21105;-51
2021/10/11 01:02:14;;;;;;;26.27;15.35;;;9.40;88.60;;;;;;1891543;76;20998;-50
2021/10/11 01:04:43;;;;;;;37.08;15.95;;;9.40;88.70;;;;;;1891548;76;21100;-49
2021/10/11 01:07:13;;;;;;;26.35;14.53;;;9.30;88.60;;;;;;1891591;76;21022;-51
2021/10/11 01:09:42;;;;;;;28.23;14.53;;;9.30;88.60;;;;;;1891498;76;21022;-52
2021/10/11 01:12:11;;;;;;;30.08;15.03;;;9.30;88.80;;;;;;1891642;76;21100;-50
2021/10/11 01:14:41;;;;;;;28.95;16.70;;;9.30;88.90;;;;;;1891680;76;20998;-49
2021/10/11 01:17:10;;;;;;;23.80;14.95;;;9.30;89.00;;;;;;1891558;76;21120;-49
2021/10/11 01:19:39;;;;;;;25.72;13.78;;;9.30;88.80;;;;;;1891740;76;20998;-49
2021/10/11 01:22:09;;;;;;;24.45;14.85;;;9.30;88.90;;;;;;1891498;76;21050;-50
2021/10/11 01:24:39;;;;;;;25.50;15.65;;;9.30;89.00;;;;;;1878002;76;21031;-49
2021/10/11 01:27:08;;;;;;;31.90;15.63;;;9.30;88.90;;;;;;1872805;75;21027;-51
2021/10/11 01:29:37;;;;;;;35.70;15.00;;;9.30;88.90;;;;;;1872789;77;21031;-51
2021/10/11 01:32:07;;;;;;;32.93;15.65;;;9.30;88.90;;;;;;1872749;77;21086;-49
2021/10/11 01:34:37;;;;;;;30.05;15.35;;;9.30;88.90;;;;;;1872747;76;21058;-51
2021/10/11 01:37:06;;;;;;;30.08;14.98;;;9.20;88.70;;;;;;1872895;77;21070;-51
2021/10/11 01:39:36;;;;;;;27.13;13.78;;;9.20;89.20;;;;;;1872785;77;21073;-49
2021/10/11 01:42:05;;;;;;;29.25;15.70;;;9.20;88.70;;;;;;1872836;76;20999;-49
2021/10/11 01:44:35;;;;;;;23.25;14.93;;;9.20;88.70;;;;;;1872907;77;21043;-50
2021/10/11 01:47:05;;;;;;;22.77;13.95;;;9.20;88.70;;;;;;1872779;75;21003;-49
2021/10/11 01:49:34;;;;;;;22.48;13.72;;;9.20;88.90;;;;;;1872864;77;21031;-52
2021/10/11 01:52:04;;;;;;;24.87;14.03;;;9.20;88.80;;;;;;1872775;77;21114;-50
2021/10/11 01:54:33;;;;;;;27.30;15.10;;;9.20;88.90;;;;;;1872791;76;21034;-50
2021/10/11 01:57:03;;;;;;;25.48;13.98;;;9.30;88.90;;;;;;1872826;77;21042;-52
2021/10/11 01:59:32;;;;;;;25.43;13.83;;;9.30;88.80;;;;;;1872862;77;21035;-49
2021/10/11 02:02:03;;;;;;;21.93;14.35;;;9.20;88.70;;;;;;1872758;77;21079;-51
2021/10/11 02:04:33;;;;;;;28.47;16.25;;;9.30;88.90;;;;;;1872901;77;21042;-50
2021/10/11 02:07:02;;;;;;;22.90;15.60;;;9.30;88.90;;;;;;1872872;77;21050;-49
2021/10/11 02:09:31;;;;;;;25.77;15.00;;;9.30;88.80;;;;;;1872769;77;21138;-51
2021/10/11 02:12:01;;;;;;;22.85;15.40;;;9.30;88.80;;;;;;1872736;76;21035;-49
2021/10/11 02:14:31;;;;;;;28.23;14.83;;;9.30;88.90;;;;;;1872861;77;21087;-52
2021/10/11 02:17:00;;;;;;;26.57;15.55;;;9.30;88.80;;;;;;1872778;75;21035;-50
2021/10/11 02:19:30;;;;;;;24.05;13.55;;;9.40;88.80;;;;;;1872823;77;21003;-49
2021/10/11 02:22:00;;;;;;;27.00;15.60;;;9.40;88.80;;;;;;1872748;77;21059;-50
2021/10/11 02:24:30;;;;;;;29.57;18.77;;;9.30;88.60;;;;;;1872796;75;21031;-52
2021/10/11 02:27:00;;;;;;;37.45;21.55;;;9.40;88.80;;;;;;1872716;77;21088;-51
2021/10/11 02:29:30;;;;;;;44.05;25.48;;;9.40;88.90;;;;;;1872745;77;21101;-48
2021/10/11 02:31:59;;;;;;;49.23;23.80;;;9.40;88.90;;;;;;1872835;76;21035;-51
2021/10/11 02:34:28;;;;;;;40.92;19.67;;;9.40;89.00;;;;;;1872776;77;21043;-50
2021/10/11 02:36:58;;;;;;;32.53;17.30;;;9.40;88.90;;;;;;1872805;75;21097;-50
2021/10/11 02:39:27;;;;;;;47.95;24.12;;;9.40;89.00;;;;;;1872756;77;21163;-49
2021/10/11 02:41:57;;;;;;;45.08;22.15;;;9.40;89.00;;;;;;1872710;77;21078;-49
2021/10/11 02:44:26;;;;;;;42.38;22.73;;;9.40;89.10;;;;;;1872728;76;21031;-51
2021/10/11 02:46:56;;;;;;;40.05;18.67;;;9.50;89.20;;;;;;1872832;76;21027;-51
2021/10/11 02:49:25;;;;;;;53.73;18.80;;;9.50;89.10;;;;;;1872861;77;21030;-50
2021/10/11 02:51:55;;;;;;;50.63;17.57;;;9.40;89.20;;;;;;1872806;77;21030;-49
2021/10/11 02:54:24;;;;;;;34.15;16.65;;;9.40;89.30;;;;;;1872961;77;21058;-51
2021/10/11 02:56:53;;;;;;;33.98;16.23;;;9.50;89.30;;;;;;1872959;77;21458;-49
2021/10/11 02:59:23;;;;;;;32.90;15.20;;;9.40;89.30;;;;;;1872968;75;21051;-49
2021/10/11 03:01:52;;;;;;;34.27;15.50;;;9.40;89.40;;;;;;1872844;77;21022;-50
2021/10/11 03:04:22;;;;;;;27.73;15.03;;;9.40;89.40;;;;;;1872869;77;21035;-51
2021/10/11 03:06:51;;;;;;;27.20;14.07;;;9.50;89.50;;;;;;1872860;77;21081;-48
2021/10/11 03:09:21;;;;;;;31.55;15.93;;;9.50;89.60;;;;;;1872868;76;21093;-49
2021/10/11 03:11:50;;;;;;;31.70;14.73;;;9.50;89.60;;;;;;1872816;76;21092;-48
2021/10/11 03:14:19;;;;;;;42.08;15.95;;;9.50;89.60;;;;;;1872862;76;21128;-51
2021/10/11 03:16:49;;;;;;;35.03;16.67;;;9.50;89.60;;;;;;1872948;75;21011;-49
2021/10/11 03:19:19;;;;;;;45.52;17.62;;;9.50;89.50;;;;;;1872902;76;21031;-50
2021/10/11 03:21:48;;;;;;;38.80;15.68;;;9.50;89.60;;;;;;1872872;77;21081;-49
2021/10/11 03:24:17;;;;;;;42.95;17.75;;;9.50;89.70;;;;;;1872970;75;21078;-49
2021/10/11 03:26:47;;;;;;;48.78;17.48;;;9.40;89.40;;;;;;1873001;77;21148;-49
2021/10/11 03:29:17;;;;;;;33.38;17.67;;;9.40;89.40;;;;;;1872810;76;21050;-51
2021/10/11 03:31:46;;;;;;;54.23;16.20;;;9.40;89.40;;;;;;1872888;75;21118;-48
2021/10/11 03:34:16;;;;;;;40.45;15.23;;;9.30;89.50;;;;;;1872849;76;21105;-49
2021/10/11 03:36:46;;;;;;;35.17;15.88;;;9.30;89.60;;;;;;1872842;75;21034;-50
2021/10/11 03:39:15;;;;;;;47.98;16.70;;;9.40;89.70;;;;;;1872852;77;21097;-49
2021/10/11 03:41:44;;;;;;;29.48;15.60;;;9.40;89.90;;;;;;1872826;75;21117;-49
2021/10/11 03:44:14;;;;;;;32.28;16.25;;;9.40;90.00;;;;;;1872868;76;21027;-49
2021/10/11 03:46:43;;;;;;;51.70;16.90;;;9.40;90.00;;;;;;1872865;77;21093;-49
2021/10/11 03:49:13;;;;;;;49.80;17.23;;;9.40;90.00;;;;;;1872888;76;21031;-48
2021/10/11 03:51:42;;;;;;;45.45;16.73;;;9.40;90.10;;;;;;1872854;77;21148;-51
2021/10/11 03:54:11;;;;;;;65.25;17.27;;;9.50;90.20;;;;;;1872916;77;21027;-49
2021/10/11 03:56:44;;;;;;;53.20;18.27;;;9.50;90.20;;;;;;1872799;76;21054;-50
2021/10/11 03:59:13;;;;;;;47.23;16.27;;;9.50;90.20;;;;;;1872822;76;21074;-48
2021/10/11 04:01:42;;;;;;;34.92;17.17;;;9.50;90.20;;;;;;1872941;75;21043;-49
2021/10/11 04:04:12;;;;;;;60.52;17.87;;;9.40;90.20;;;;;;1872955;76;21132;-48
2021/10/11 04:06:41;;;;;;;57.60;16.37;;;9.40;90.30;;;;;;1872904;77;21035;-51
2021/10/11 04:09:12;;;;;;;54.85;18.20;;;9.50;90.40;;;;;;1872833;77;21035;-48
2021/10/11 04:11:42;;;;;;;66.77;17.55;;;9.50;90.40;;;;;;1872920;77;21453;-51
2021/10/11 04:14:11;;;;;;;48.52;15.68;;;9.50;90.40;;;;;;1872944;77;21093;-48
2021/10/11 04:16:41;;;;;;;129.57;19.67;;;9.60;90.40;;;;;;1872922;77;21011;-49
2021/10/11 04:19:10;;;;;;;66.47;22.98;;;9.60;90.50;;;;;;1872836;75;21031;-50
2021/10/11 04:21:42;;;;;;;43.05;17.50;;;9.60;90.40;;;;;;1872819;77;21105;-49
2021/10/11 04:24:11;;;;;;;32.15;15.05;;;9.60;90.40;;;;;;1872949;76;21108;-49
2021/10/11 04:26:40;;;;;;;40.15;17.05;;;9.60;90.40;;;;;;1872808;76;21071;-48
2021/10/11 04:29:10;;;;;;;54.95;15.70;;;9.60;90.40;;;;;;1872928;77;21034;-51
2021/10/11 04:31:39;;;;;;;66.50;17.67;;;9.60;90.50;;;;;;1873011;77;21600;-50
2021/10/11 04:34:09;;;;;;;66.60;18.67;;;9.60;90.70;;;;;;1872866;76;20995;-51
2021/10/11 04:36:38;;;;;;;40.12;17.23;;;9.60;90.50;;;;;;1872771;75;21078;-48
2021/10/11 04:39:08;;;;;;;44.33;18.17;;;9.70;90.50;;;;;;1872927;75;21052;-51
2021/10/11 04:41:37;;;;;;;55.30;20.23;;;9.70;90.50;;;;;;1872824;77;21176;-48
2021/10/11 04:44:06;;;;;;;46.25;20.60;;;9.70;90.60;;;;;;1872746;77;21093;-48
2021/10/11 04:46:36;;;;;;;78.75;20.30;;;9.70;90.80;;;;;;1872883;77;21188;-50
2021/10/11 04:49:05;;;;;;;40.85;18.35;;;9.70;90.50;;;;;;1872895;77;21043;-51
2021/10/11 04:51:34;;;;;;;37.70;17.05;;;9.80;90.60;;;;;;1872865;77;21030;-51
2021/10/11 04:54:04;;;;;;;67.08;24.67;;;9.80;90.60;;;;;;1872799;76;21027;-49
2021/10/11 04:56:33;;;;;;;42.78;20.08;;;9.80;90.60;;;;;;1872754;77;21051;-51
2021/10/11 04:59:03;;;;;;;35.00;17.75;;;9.80;90.50;;;;;;1872808;76;21027;-50
2021/10/11 05:01:32;;;;;;;40.55;17.98;;;9.80;90.50;;;;;;1872781;77;21030;-48
2021/10/11 05:04:02;;;;;;;41.25;19.60;;;9.80;90.50;;;;;;1872690;76;21116;-51
2021/10/11 05:06:31;;;;;;;36.38;19.50;;;9.80;90.60;;;;;;1872735;77;21035;-50
2021/10/11 05:09:01;;;;;;;28.90;16.90;;;9.80;90.40;;;;;;1872681;76;21168;-48
2021/10/11 05:11:30;;;;;;;36.88;18.87;;;9.80;90.60;;;;;;1872907;77;21107;-51
2021/10/11 05:14:00;;;;;;;34.85;18.30;;;9.80;90.60;;;;;;1872903;75;21042;-49
2021/10/11 05:16:31;;;;;;;34.50;20.77;;;9.70;90.50;;;;;;1872730;77;21042;-48
2021/10/11 05:19:00;;;;;;;39.65;20.30;;;9.70;90.50;;;;;;1872666;77;21023;-48
2021/10/11 05:21:31;;;;;;;41.50;20.43;;;9.70;90.60;;;;;;1872759;75;21043;-50
2021/10/11 05:24:00;;;;;;;39.83;20.92;;;9.70;90.60;;;;;;1872704;75;21047;-50
2021/10/11 05:26:31;;;;;;;36.88;19.30;;;9.70;90.50;;;;;;1872621;76;21074;-51
2021/10/11 05:29:00;;;;;;;32.05;18.30;;;9.70;90.60;;;;;;1872844;77;21477;-49
2021/10/11 05:31:30;;;;;;;39.40;20.37;;;9.70;90.70;;;;;;1872770;77;21086;-48
2021/10/11 05:33:59;;;;;;;36.05;19.48;;;9.80;90.70;;;;;;1872728;75;21101;-50
2021/10/11 05:36:29;;;;;;;32.85;18.60;;;9.90;90.60;;;;;;1872823;77;21596;-51
2021/10/11 05:38:59;;;;;;;36.42;18.75;;;9.90;90.60;;;;;;1872934;76;21180;-48
2021/10/11 05:41:29;;;;;;;49.08;21.65;;;9.90;90.90;;;;;;1872836;76;21140;-51
2021/10/11 05:43:58;;;;;;;45.98;21.62;;;10.00;90.60;;;;;;1872829;76;21078;-51
2021/10/11 05:46:27;;;;;;;55.70;24.27;;;10.00;90.60;;;;;;1872724;77;21089;-51
2021/10/11 05:48:57;;;;;;;49.03;24.20;;;10.00;90.60;;;;;;1872667;76;21515;-49
2021/10/11 05:51:26;;;;;;;48.28;21.48;;;10.10;90.60;;;;;;1872719;75;21031;-48
2021/10/11 05:53:55;;;;;;;46.18;21.37;;;10.00;90.50;;;;;;1872685;77;21473;-50
2021/10/11 05:56:24;;;;;;;48.23;23.47;;;10.10;90.50;;;;;;1872832;77;21519;-51
2021/10/11 05:58:54;;;;;;;40.95;22.17;;;10.00;90.40;;;;;;1872791;77;21098;-49
2021/10/11 06:01:23;;;;;;;52.62;23.75;;;10.00;90.40;;;;;;1872685;76;21033;-51
2021/10/11 06:03:52;;;;;;;44.90;25.27;;;10.00;90.50;;;;;;1872808;77;21030;-52
2021/10/11 06:06:21;;;;;;;46.98;26.55;;;10.00;90.50;;;;;;1872842;77;21100;-50
2021/10/11 06:08:51;;;;;;;58.60;28.32;;;10.00;90.60;;;;;;1872654;77;21121;-49
2021/10/11 06:11:21;;;;;;;46.58;24.10;;;10.00;90.60;;;;;;1872799;77;21055;-50
2021/10/11 06:13:50;;;;;;;38.73;22.10;;;10.00;90.60;;;;;;1872650;75;21035;-48
2021/10/11 06:16:19;;;;;;;31.70;20.75;;;10.10;90.60;;;;;;1872806;77;21058;-51
2021/10/11 06:18:48;;;;;;;40.05;22.85;;;10.20;90.70;;;;;;1872845;77;21156;-51
2021/10/11 06:21:17;;;;;;;36.55;22.48;;;10.30;90.60;;;;;;1872792;75;21030;-51
2021/10/11 06:23:47;;;;;;;37.40;20.48;;;10.30;90.50;;;;;;1872895;77;21125;-49
2021/10/11 06:26:17;;;;;;;42.30;22.27;;;10.40;90.50;;;;;;1875844;75;21058;-51
2021/10/11 06:28:46;;;;;;;38.78;22.75;;;10.40;90.50;;;;;;1891604;76;21046;-48
2021/10/11 06:31:16;;;;;;;40.95;22.13;;;10.50;90.50;;;;;;1891647;76;21151;-49
2021/10/11 06:33:45;;;;;;;39.60;22.50;;;10.60;90.50;;;;;;1891604;76;21084;-48
2021/10/11 06:36:14;;;;;;;37.80;21.50;;;10.60;90.40;;;;;;1891593;76;21026;-51
2021/10/11 06:38:43;;;;;;;35.95;20.72;;;10.70;90.40;;;;;;1891739;75;21433;-50
2021/10/11 06:41:13;;;;;;;42.10;21.68;;;10.70;90.30;;;;;;1891648;76;21062;-48
2021/10/11 06:43:42;;;;;;;51.35;28.57;;;10.80;90.20;;;;;;1891803;76;21038;-51
2021/10/11 06:46:12;;;;;;;63.73;32.40;;;10.80;90.20;;;;;;1891690;76;21195;-50
2021/10/11 06:48:41;;;;;;;69.97;32.58;;;10.80;90.20;;;;;;1891707;76;21034;-51
2021/10/11 06:51:11;;;;;;;65.78;31.00;;;10.80;90.10;;;;;;1891734;76;21038;-48
2021/10/11 06:53:40;;;;;;;73.12;34.73;;;10.80;90.20;;;;;;1891701;76;21030;-48
2021/10/11 06:56:10;;;;;;;58.50;31.37;;;10.80;90.10;;;;;;1891709;76;21037;-51
2021/10/11 06:58:39;;;;;;;62.23;31.02;;;10.90;90.30;;;;;;1891661;76;21030;-49
2021/10/11 07:01:08;;;;;;;60.78;31.02;;;10.90;90.30;;;;;;1891706;76;21171;-48
2021/10/11 07:03:38;;;;;;;64.17;31.57;;;11.00;90.30;;;;;;1891582;76;21329;-51
2021/10/11 07:06:14;;;;;;;54.93;30.17;;;11.00;90.50;;;;;;1891733;76;21202;-52
2021/10/11 07:08:38;;;;;;;72.53;34.53;;;11.10;90.20;;;;;;1890954;75;21121;-52
2021/10/11 07:11:12;;;;;;;70.03;33.75;;;11.10;90.20;;;;;;1891548;76;21034;-51
2021/10/11 07:13:39;;;;;;;58.38;31.60;;;11.20;90.20;;;;;;1891016;75;21113;-47
2021/10/11 07:16:09;;;;;;;65.05;29.00;;;11.20;90.10;;;;;;1891676;76;21055;-51
2021/10/11 07:18:38;;;;;;;55.23;28.52;;;11.20;90.10;;;;;;1891611;76;21096;-48
2021/10/11 07:21:08;;;;;;;60.95;30.62;;;11.30;90.10;;;;;;1891604;76;21026;-49
2021/10/11 07:23:38;;;;;;;68.07;32.13;;;11.40;90.20;;;;;;1891572;76;21100;-48
2021/10/11 07:26:08;;;;;;;61.73;29.57;;;11.50;90.20;;;;;;1891484;76;21034;-51
2021/10/11 07:28:37;;;;;;;70.60;31.10;;;11.60;90.10;;;;;;1874938;76;21128;-51
2021/10/11 07:31:07;;;;;;;64.12;31.30;;;11.60;90.10;;;;;;1872788;75;21039;-50
2021/10/11 07:33:36;;;;;;;63.25;35.78;;;11.70;90.00;;;;;;1872834;77;21101;-51
2021/10/11 07:36:06;;;;;;;64.92;29.15;;;11.70;90.00;;;;;;1872806;75;21027;-51
2021/10/11 07:38:36;;;;;;;61.50;28.87;;;11.80;89.80;;;;;;1872803;77;21118;-50
2021/10/11 07:41:05;;;;;;;59.75;30.15;;;11.90;89.70;;;;;;1872800;77;21168;-49
2021/10/11 07:43:34;;;;;;;59.80;29.98;;;11.90;89.50;;;;;;1872806;76;21083;-51
2021/10/11 07:46:05;;;;;;;52.33;27.37;;;11.90;89.60;;;;;;1872870;76;21571;-52
2021/10/11 07:48:35;;;;;;;55.63;29.02;;;11.90;89.70;;;;;;1872761;77;21003;-45
2021/10/11 07:51:04;;;;;;;54.27;27.60;;;11.90;89.70;;;;;;1872698;77;21023;-47
2021/10/11 07:53:33;;;;;;;59.80;29.82;;;12.00;89.70;;;;;;1871496;76;21140;-48
2021/10/11 07:56:02;;;;;;;56.45;30.32;;;12.00;89.50;;;;;;1872169;76;21071;-48
2021/10/11 07:58:32;;;;;;;52.48;26.20;;;12.00;89.40;;;;;;1872318;77;21035;-47
2021/10/11 08:01:02;;;;;;;52.80;26.07;;;12.00;89.40;;;;;;1872157;77;21105;-49
2021/10/11 08:03:31;;;;;;;53.17;27.60;;;12.10;89.50;;;;;;1872277;76;20999;-45
2021/10/11 08:06:03;;;;;;;53.80;29.15;;;12.10;89.40;;;;;;1872044;76;21104;-46
2021/10/11 08:08:32;;;;;;;54.13;27.73;;;12.10;89.50;;;;;;1872042;76;21118;-47
2021/10/11 08:11:02;;;;;;;58.58;30.50;;;12.10;89.50;;;;;;1871367;75;21031;-45
2021/10/11 08:13:32;;;;;;;53.70;28.02;;;12.10;89.50;;;;;;1872055;77;21023;-47
2021/10/11 08:16:01;;;;;;;63.83;29.48;;;12.10;89.70;;;;;;1872127;75;21006;-49
2021/10/11 08:18:31;;;;;;;70.20;35.25;;;12.20;89.70;;;;;;1872365;76;21067;-45
2021/10/11 08:21:00;;;;;;;61.85;32.58;;;12.30;89.70;;;;;;1872126;77;21085;-47
2021/10/11 08:23:31;;;;;;;65.22;36.10;;;12.40;89.60;;;;;;1872284;77;21183;-48
2021/10/11 08:26:00;;;;;;;59.90;31.95;;;12.30;89.50;;;;;;1872410;77;21043;-47
2021/10/11 08:28:30;;;;;;;49.55;29.02;;;12.40;89.60;;;;;;1872288;75;21106;-45
2021/10/11 08:30:59;;;;;;;50.48;27.02;;;12.50;89.50;;;;;;1872647;75;21105;-49
2021/10/11 08:33:29;;;;;;;51.08;28.35;;;12.50;89.40;;;;;;1872183;76;21042;-47
2021/10/11 08:36:01;;;;;;;51.23;27.62;;;12.60;89.50;;;;;;1871979;76;21035;-46
2021/10/11 08:38:29;;;;;;;52.67;26.33;;;12.70;89.40;;;;;;1872122;77;21148;-46
2021/10/11 08:40:59;;;;;;;38.75;22.48;;;12.70;89.40;;;;;;1872153;77;21571;-44
2021/10/11 08:43:28;;;;;;;31.77;19.77;;;12.80;89.20;;;;;;1872094;76;21135;-46
2021/10/11 08:45:57;;;;;;;27.67;17.27;;;12.90;88.70;;;;;;1872225;76;21022;-46
2021/10/11 08:48:27;;;;;;;31.65;19.20;;;12.90;88.80;;;;;;1860129;77;21105;-46
2021/10/11 08:50:58;;;;;;;40.60;21.48;;;13.00;88.70;;;;;;1871778;76;21058;-46
2021/10/11 08:53:28;;;;;;;37.45;18.80;;;13.00;88.70;;;;;;1872232;77;20999;-47
2021/10/11 08:55:57;;;;;;;26.80;17.80;;;13.00;88.40;;;;;;1872248;77;21047;-48
2021/10/11 08:58:27;;;;;;;23.80;16.12;;;13.00;87.90;;;;;;1872291;75;21050;-48
2021/10/11 09:01:07;;;;;;;29.50;17.27;;;13.10;88.20;;;;;;1872269;77;21096;-48
2021/10/11 09:03:36;;;;;;;29.77;16.17;;;13.10;87.90;;;;;;1872015;77;21039;-46
2021/10/11 09:06:10;;;;;;;32.60;18.40;;;13.20;88.10;;;;;;1872036;77;21039;-48
2021/10/11 09:08:43;;;;;;;31.82;18.70;;;13.20;88.00;;;;;;1872291;77;21077;-47
2021/10/11 09:11:14;;;;;;;31.33;18.62;;;13.30;88.10;;;;;;1872186;77;21007;-49
2021/10/11 09:13:48;;;;;;;25.90;16.32;;;13.40;88.20;;;;;;1872017;77;21144;-47
2021/10/11 09:16:40;;;;;;;31.02;18.32;;;13.50;87.80;;;;;;1872259;76;21099;-47
2021/10/11 09:19:29;;;;;;;28.67;17.67;;;13.60;87.70;;;;;;1871974;76;21110;-46
2021/10/11 09:21:47;;;;;;;46.00;20.57;;;13.70;87.60;;;;;;1870438;76;21453;-47
2021/10/11 09:24:21;;;;;;;24.77;16.32;;;13.80;87.70;;;;;;1872060;77;21160;-47
2021/10/11 09:27:02;;;;;;;27.13;16.42;;;13.80;87.40;;;;;;1872137;77;21108;-45
2021/10/11 09:29:36;;;;;;;25.70;15.72;;;13.90;87.50;;;;;;1886301;75;21183;-47
2021/10/11 09:32:08;;;;;;;26.90;16.95;;;14.00;87.50;;;;;;1891225;76;21027;-47
2021/10/11 09:34:41;;;;;;;23.98;16.57;;;14.00;87.30;;;;;;1890940;76;21073;-45
2021/10/11 09:37:17;;;;;;;23.57;15.40;;;14.10;87.30;;;;;;1890841;76;21098;-47
2021/10/11 09:39:47;;;;;;;25.60;15.30;;;14.30;87.60;;;;;;1890900;76;21026;-47
2021/10/11 09:42:17;;;;;;;19.87;13.13;;;14.30;87.40;;;;;;1890769;75;21057;-45
2021/10/11 09:44:54;;;;;;;17.45;13.20;;;14.40;87.00;;;;;;1890988;76;21128;-46
2021/10/11 09:47:41;;;;;;;31.20;17.45;;;14.60;86.80;;;;;;1890833;75;21026;-46
2021/10/11 09:50:14;;;;;;;25.55;16.05;;;14.60;86.80;;;;;;1890868;75;21081;-48
2021/10/11 09:52:44;;;;;;;24.92;15.68;;;14.70;86.60;;;;;;1890876;76;21116;-45
2021/10/11 09:55:15;;;;;;;23.67;13.65;;;14.70;86.50;;;;;;1890957;76;21030;-48
2021/10/11 09:57:45;;;;;;;21.97;14.30;;;14.70;86.50;;;;;;1890939;76;21082;-46
2021/10/11 10:00:15;;;;;;;21.75;14.45;;;14.80;86.60;;;;;;1890923;76;21053;-49
2021/10/11 10:02:48;;;;;;;21.80;13.20;;;14.90;86.50;;;;;;1891020;75;21097;-45
2021/10/11 10:05:28;;;;;;;25.27;13.00;;;14.90;86.30;;;;;;1890963;75;21097;-46
2021/10/11 10:07:58;;;;;;;22.02;13.95;;;14.90;85.90;;;;;;1890165;75;21124;-49
2021/10/11 10:10:29;;;;;;;23.25;13.90;;;15.00;86.00;;;;;;1890999;76;21026;-46
2021/10/11 10:12:58;;;;;;;23.22;12.75;;;14.90;86.10;;;;;;1891041;76;21171;-46
2021/10/11 10:15:33;;;;;;;17.05;11.50;;;15.00;86.10;;;;;;1890928;76;21453;-50
2021/10/11 10:18:10;;;;;;;25.55;16.48;;;15.10;86.10;;;;;;1891062;75;21168;-46
2021/10/11 10:20:42;;;;;;;23.32;17.50;;;15.10;86.00;;;;;;1890877;76;21077;-46
2021/10/11 10:23:13;;;;;;;32.10;14.55;;;15.20;86.10;;;;;;1878222;75;21560;-48
2021/10/11 10:25:46;;;;;;;24.60;13.65;;;15.20;86.20;;;;;;1888365;75;21488;-47
2021/10/11 10:28:16;;;;;;;19.75;13.43;;;15.30;85.80;;;;;;1889350;76;21035;-45
2021/10/11 10:31:02;;;;;;;21.62;14.25;;;15.40;86.10;;;;;;1879833;75;21062;-48
2021/10/11 10:33:37;;;;;;;20.85;12.95;;;15.50;86.20;;;;;;1879901;76;21108;-46
2021/10/11 10:36:27;;;;;;;21.55;14.00;;;15.50;85.80;;;;;;1879907;75;21016;-49
2021/10/11 10:39:05;;;;;;;18.52;12.10;;;15.60;85.70;;;;;;1879876;76;21120;-47
2021/10/11 10:41:35;;;;;;;17.75;12.50;;;15.70;85.60;;;;;;1879694;76;21519;-47
2021/10/11 10:44:16;;;;;;;21.27;13.80;;;15.70;85.20;;;;;;1879857;76;21002;-45
2021/10/11 10:46:59;;;;;;;23.05;15.58;;;15.70;85.40;;;;;;1879858;76;21113;-44
2021/10/11 10:49:31;;;;;;;16.25;10.93;;;15.70;85.40;;;;;;1879832;76;21034;-46
2021/10/11 10:52:02;;;;;;;14.07;10.05;;;15.80;85.60;;;;;;1879975;76;21089;-46
2021/10/11 10:54:39;;;;;;;19.98;16.15;;;15.80;85.40;;;;;;1879860;76;21480;-45
2021/10/11 10:57:09;;;;;;;21.30;13.90;;;15.90;85.20;;;;;;1879699;76;21069;-46
2021/10/11 10:59:39;;;;;;;23.38;14.23;;;16.00;85.10;;;;;;1879799;76;21085;-47
2021/10/11 11:02:10;;;;;;;21.23;13.88;;;16.00;85.10;;;;;;1879882;75;21476;-47
2021/10/11 11:04:40;;;;;;;22.27;14.13;;;16.00;84.80;;;;;;1878032;76;21468;-48
2021/10/11 11:07:11;;;;;;;16.37;10.45;;;16.10;84.70;;;;;;1879764;76;21066;-50
2021/10/11 11:09:45;;;;;;;18.62;11.03;;;16.20;84.60;;;;;;1879695;76;21135;-47
2021/10/11 11:12:15;;;;;;;20.23;12.33;;;16.30;85.00;;;;;;1879973;76;21160;-50
2021/10/11 11:14:46;;;;;;;17.80;13.00;;;16.30;84.00;;;;;;1879889;76;21422;-46
2021/10/11 11:17:15;;;;;;;21.77;12.53;;;16.30;84.20;;;;;;1879513;76;21126;-46
2021/10/11 11:19:45;;;;;;;16.80;9.43;;;16.40;84.20;;;;;;1879855;76;21001;-47
2021/10/11 11:22:20;;;;;;;14.85;9.53;;;16.40;83.70;;;;;;1879950;76;21077;-48
2021/10/11 11:24:52;;;;;;;12.63;8.60;;;16.40;83.50;;;;;;1878955;76;21112;-46
2021/10/11 11:27:29;;;;;;;15.20;8.98;;;16.40;83.00;;;;;;1880241;76;21144;-45
2021/10/11 11:30:01;;;;;;;20.32;9.50;;;16.40;82.90;;;;;;1861008;75;21117;-45
2021/10/11 11:32:31;;;;;;;13.85;9.15;;;16.40;83.00;;;;;;1890076;76;21129;-47
2021/10/11 11:35:00;;;;;;;21.40;10.03;;;16.40;82.90;;;;;;1890220;76;21034;-50
2021/10/11 11:37:30;;;;;;;14.25;10.10;;;16.40;82.90;;;;;;1890020;76;21109;-48
2021/10/11 11:40:07;;;;;;;15.08;9.30;;;16.40;82.80;;;;;;1890088;76;21027;-48
2021/10/11 11:42:37;;;;;;;15.00;10.00;;;16.30;82.90;;;;;;1890199;76;21096;-49
2021/10/11 11:45:06;;;;;;;13.55;9.73;;;16.30;82.70;;;;;;1890042;76;21038;-49
2021/10/11 11:47:35;;;;;;;13.50;9.70;;;16.30;82.50;;;;;;1890192;76;21092;-50
2021/10/11 11:50:10;;;;;;;16.73;9.90;;;16.30;82.60;;;;;;1889889;76;21022;-47
2021/10/11 11:52:40;;;;;;;13.90;8.90;;;16.40;82.80;;;;;;1889397;75;21105;-50
2021/10/11 11:55:09;;;;;;;13.80;8.40;;;16.40;82.40;;;;;;1889980;76;21080;-48
2021/10/11 11:57:44;;;;;;;12.23;9.33;;;16.50;82.10;;;;;;1890097;76;21026;-48
2021/10/11 12:00:14;;;;;;;16.02;8.20;;;16.60;82.20;;;;;;1890205;76;21498;-50
2021/10/11 12:02:45;;;;;;;16.97;9.13;;;16.70;82.70;;;;;;1890063;76;21003;-50
2021/10/11 12:05:19;;;;;;;16.20;9.25;;;16.70;81.50;;;;;;1889996;76;21097;-49
2021/10/11 12:07:48;;;;;;;14.30;9.05;;;16.80;81.20;;;;;;1890035;76;21112;-47
2021/10/11 12:10:23;;;;;;;20.50;9.05;;;16.80;81.20;;;;;;1889929;76;21077;-47
2021/10/11 12:13:01;;;;;;;15.90;8.25;;;16.80;81.20;;;;;;1890158;76;21034;-51
2021/10/11 12:15:32;;;;;;;15.40;9.88;;;16.80;80.80;;;;;;1889301;75;21066;-47
2021/10/11 12:18:10;;;;;;;17.95;9.33;;;16.80;80.90;;;;;;1889891;76;21101;-50
2021/10/11 12:20:47;;;;;;;15.85;9.33;;;16.80;80.70;;;;;;1889493;75;21058;-47
2021/10/11 12:23:18;;;;;;;17.30;8.20;;;16.90;80.80;;;;;;1886052;75;21030;-48
2021/10/11 12:25:49;;;;;;;14.25;8.93;;;16.90;80.90;;;;;;1889943;76;21114;-48
2021/10/11 12:28:20;;;;;;;16.82;8.65;;;17.00;80.90;;;;;;1890055;76;21047;-47
2021/10/11 12:30:52;;;;;;;18.55;9.38;;;17.10;80.70;;;;;;1889945;75;21055;-48
2021/10/11 12:33:21;;;;;;;18.67;9.50;;;17.10;80.20;;;;;;1889027;75;21066;-47
2021/10/11 12:35:53;;;;;;;20.10;9.75;;;17.10;80.30;;;;;;1890120;76;21061;-49
2021/10/11 12:38:22;;;;;;;14.05;10.25;;;17.10;80.10;;;;;;1888161;75;21058;-47
2021/10/11 12:40:52;;;;;;;17.48;11.45;;;17.20;80.00;;;;;;1889900;76;21043;-46
2021/10/11 12:43:21;;;;;;;18.32;10.98;;;17.10;79.90;;;;;;1889900;76;21144;-49
2021/10/11 12:46:11;;;;;;;23.62;10.43;;;17.10;79.80;;;;;;1889993;76;21088;-47
2021/10/11 12:48:33;;;;;;;17.12;10.98;;;17.10;80.00;;;;;;1885700;75;21092;-47
2021/10/11 12:51:03;;;;;;;16.80;10.53;;;17.10;79.50;;;;;;1889914;76;21068;-50